Time;durP1;ratioP1;P1;durP2;ratioP2;P2;SDS_P1;SDS_P2;PMS_P1;PMS_P2;Temp;Humidity;BMP_temperature;BMP_pressure;BME280_temperature;BME280_humidity;BME280_pressure;Samples;Min_cycle;Max_cycle;Signal;HPM_P1;HPM_P2
2024/02/23 00:00:30;;;;;;;0.60;0.43;;;5.50;99.90;;;;;;5040745;28;20659;-69
2024/02/23 00:02:57;;;;;;;0.70;0.40;;;5.50;99.90;;;;;;5056685;28;20197;-68
2024/02/23 00:05:23;;;;;;;1.33;0.40;;;5.50;99.90;;;;;;5065623;28;20169;-68
2024/02/23 00:07:49;;;;;;;0.50;0.50;;;5.40;99.90;;;;;;5054631;28;20561;-69
2024/02/23 00:10:15;;;;;;;0.80;0.50;;;5.40;99.90;;;;;;5062156;28;20431;-68
2024/02/23 00:12:41;;;;;;;0.70;0.67;;;5.50;99.90;;;;;;5051347;28;20209;-69
2024/02/23 00:15:07;;;;;;;0.47;0.40;;;5.40;99.90;;;;;;5044207;28;20917;-68
2024/02/23 00:17:32;;;;;;;0.50;0.50;;;5.40;99.90;;;;;;5047106;28;20268;-69
2024/02/23 00:19:58;;;;;;;1.23;0.50;;;5.40;99.90;;;;;;5058062;28;20908;-69
2024/02/23 00:22:25;;;;;;;0.60;0.50;;;5.40;99.90;;;;;;5035120;28;20185;-69
2024/02/23 00:24:51;;;;;;;0.43;0.40;;;5.40;99.90;;;;;;5045937;28;20182;-69
2024/02/23 00:27:16;;;;;;;1.00;0.70;;;5.50;99.90;;;;;;5062018;28;20462;-69
2024/02/23 00:29:42;;;;;;;0.80;0.47;;;5.50;99.90;;;;;;5041707;28;20577;-68
2024/02/23 00:32:08;;;;;;;2.73;0.60;;;5.40;99.90;;;;;;5045775;28;20208;-69
2024/02/23 00:34:33;;;;;;;0.77;0.67;;;5.40;99.90;;;;;;5050320;28;20761;-69
2024/02/23 00:36:59;;;;;;;1.17;0.60;;;5.40;99.90;;;;;;5065304;28;20177;-68
2024/02/23 00:39:25;;;;;;;1.17;0.50;;;5.40;99.90;;;;;;5031785;28;20214;-69
2024/02/23 00:41:50;;;;;;;1.13;0.70;;;5.50;99.90;;;;;;5032502;28;20181;-69
2024/02/23 00:44:16;;;;;;;2.00;0.60;;;5.50;99.90;;;;;;5046528;28;20180;-68
2024/02/23 00:46:41;;;;;;;1.13;0.70;;;5.50;99.90;;;;;;5051202;28;20209;-69
2024/02/23 00:49:07;;;;;;;0.93;0.47;;;5.50;99.90;;;;;;5057716;28;20280;-69
2024/02/23 00:51:32;;;;;;;1.33;0.70;;;5.50;99.90;;;;;;5062006;28;20264;-69
2024/02/23 00:53:58;;;;;;;1.77;0.80;;;5.60;99.90;;;;;;5054419;28;20185;-69
2024/02/23 00:56:24;;;;;;;1.27;0.60;;;5.60;99.90;;;;;;5058933;28;20628;-68
2024/02/23 00:58:49;;;;;;;0.90;0.70;;;5.60;99.90;;;;;;5050674;28;20216;-69
2024/02/23 01:01:15;;;;;;;0.67;0.67;;;5.60;99.90;;;;;;5056951;28;20216;-69
2024/02/23 01:03:40;;;;;;;5.77;0.90;;;5.70;99.90;;;;;;5042221;28;20182;-69
2024/02/23 01:06:06;;;;;;;1.00;0.70;;;5.70;99.90;;;;;;5059227;28;20199;-69
2024/02/23 01:08:31;;;;;;;2.73;0.60;;;5.70;99.90;;;;;;5050685;28;20198;-69
2024/02/23 01:10:57;;;;;;;0.67;0.50;;;5.70;99.90;;;;;;5031612;28;20694;-69
2024/02/23 01:13:22;;;;;;;1.00;0.80;;;5.70;99.90;;;;;;5033366;28;20224;-69
2024/02/23 01:15:48;;;;;;;0.80;0.60;;;5.70;99.90;;;;;;5051478;28;20185;-69
2024/02/23 01:18:14;;;;;;;2.53;0.87;;;5.70;99.90;;;;;;5066311;28;20204;-69
2024/02/23 01:20:39;;;;;;;4.40;0.83;;;5.70;99.90;;;;;;5051489;28;20721;-69
2024/02/23 01:23:05;;;;;;;1.20;0.77;;;5.70;99.90;;;;;;5050048;28;20194;-68
2024/02/23 01:25:30;;;;;;;2.13;0.77;;;5.70;99.90;;;;;;5052534;28;20178;-69
2024/02/23 01:27:56;;;;;;;1.67;1.10;;;5.70;99.90;;;;;;5067418;28;20202;-68
2024/02/23 01:30:21;;;;;;;3.57;1.10;;;5.70;99.90;;;;;;5065208;28;20173;-68
2024/02/23 01:32:47;;;;;;;1.83;1.10;;;5.70;99.90;;;;;;5057337;28;20613;-69
2024/02/23 01:35:13;;;;;;;1.73;0.90;;;5.70;99.90;;;;;;5053171;28;20188;-69
2024/02/23 01:37:38;;;;;;;3.13;0.97;;;5.60;99.90;;;;;;5059624;28;20971;-69
2024/02/23 01:40:04;;;;;;;2.10;0.97;;;5.60;99.90;;;;;;5053933;28;20286;-69
2024/02/23 01:42:30;;;;;;;1.57;0.73;;;5.60;99.90;;;;;;5054748;28;20177;-70
2024/02/23 01:44:56;;;;;;;1.43;0.90;;;5.60;99.90;;;;;;5048047;28;20439;-69
2024/02/23 01:47:23;;;;;;;2.07;1.27;;;5.60;99.90;;;;;;5057276;28;20311;-68
2024/02/23 01:49:49;;;;;;;5.93;0.80;;;5.60;99.90;;;;;;5057081;28;20433;-69
2024/02/23 01:52:15;;;;;;;4.70;0.90;;;5.60;99.90;;;;;;5064747;28;20500;-69
2024/02/23 01:54:41;;;;;;;1.57;1.00;;;5.60;99.90;;;;;;5055258;28;20815;-68
2024/02/23 01:57:08;;;;;;;1.60;1.00;;;5.60;99.90;;;;;;5056508;28;20430;-69
2024/02/23 01:59:36;;;;;;;1.17;0.70;;;5.60;99.90;;;;;;5041936;28;20234;-69
2024/02/23 02:02:02;;;;;;;0.70;0.60;;;5.70;99.90;;;;;;5038696;28;20483;-69
2024/02/23 02:04:28;;;;;;;3.43;0.93;;;5.70;99.90;;;;;;5060503;28;20458;-69
2024/02/23 02:06:54;;;;;;;1.57;1.03;;;5.60;99.90;;;;;;5050761;28;20494;-69
2024/02/23 02:09:20;;;;;;;0.63;0.63;;;5.70;99.90;;;;;;5061511;28;20193;-69
2024/02/23 02:11:47;;;;;;;2.57;0.70;;;5.60;99.90;;;;;;5064915;28;20232;-68
2024/02/23 02:14:13;;;;;;;5.37;1.30;;;5.60;99.90;;;;;;5061596;28;20666;-69
2024/02/23 02:16:39;;;;;;;3.10;0.70;;;5.60;99.90;;;;;;5052469;28;20437;-68
2024/02/23 02:19:04;;;;;;;0.60;0.60;;;5.60;99.90;;;;;;5061987;28;20211;-69
2024/02/23 02:21:32;;;;;;;1.60;0.70;;;5.60;99.90;;;;;;5049625;28;20424;-68
2024/02/23 02:23:57;;;;;;;1.43;0.80;;;5.60;99.90;;;;;;5050951;28;20193;-69
2024/02/23 02:26:23;;;;;;;5.40;1.20;;;5.60;99.90;;;;;;5057581;28;20518;-68
2024/02/23 02:28:48;;;;;;;2.20;0.87;;;5.60;99.90;;;;;;5048714;28;20608;-69
2024/02/23 02:31:14;;;;;;;2.30;0.80;;;5.60;99.90;;;;;;5054061;28;20183;-69
2024/02/23 02:33:40;;;;;;;0.63;0.50;;;5.60;99.90;;;;;;5057674;28;20180;-69
2024/02/23 02:36:06;;;;;;;1.77;0.87;;;5.60;99.90;;;;;;5061925;28;20181;-69
2024/02/23 02:38:33;;;;;;;1.20;0.63;;;5.60;99.90;;;;;;5049842;28;20881;-68
2024/02/23 02:41:01;;;;;;;1.07;0.50;;;5.60;99.90;;;;;;5063983;28;20191;-69
2024/02/23 02:43:27;;;;;;;1.37;0.60;;;5.60;99.90;;;;;;5049713;28;20436;-69
2024/02/23 02:45:53;;;;;;;2.00;0.80;;;5.60;99.90;;;;;;5039081;28;20468;-69
2024/02/23 02:48:19;;;;;;;1.00;0.60;;;5.60;99.90;;;;;;5045582;28;20539;-68
2024/02/23 02:50:44;;;;;;;1.10;0.77;;;5.60;99.90;;;;;;5051953;28;20177;-69
2024/02/23 02:53:10;;;;;;;2.60;0.60;;;5.60;99.90;;;;;;5044262;28;20292;-69
2024/02/23 02:55:36;;;;;;;1.47;0.80;;;5.60;99.90;;;;;;5043674;28;20264;-69
2024/02/23 02:58:02;;;;;;;1.70;0.80;;;5.50;99.90;;;;;;5040510;28;20922;-69
2024/02/23 03:00:28;;;;;;;1.53;0.80;;;5.50;99.90;;;;;;5059846;28;20471;-69
2024/02/23 03:02:53;;;;;;;2.47;0.90;;;5.50;99.90;;;;;;5055368;28;20698;-69
2024/02/23 03:05:19;;;;;;;2.90;0.90;;;5.50;99.90;;;;;;5033951;28;20232;-69
2024/02/23 03:07:45;;;;;;;1.00;0.70;;;5.50;99.90;;;;;;5042253;28;20214;-69
2024/02/23 03:10:10;;;;;;;1.90;0.73;;;5.50;99.90;;;;;;5058046;28;20247;-69
2024/02/23 03:12:36;;;;;;;1.53;0.90;;;5.50;99.90;;;;;;5048944;28;20181;-69
2024/02/23 03:15:06;;;;;;;0.67;0.67;;;5.50;99.90;;;;;;5041652;28;20173;-69
2024/02/23 03:17:31;;;;;;;2.97;0.90;;;5.50;99.90;;;;;;5046117;28;20173;-69
2024/02/23 03:19:57;;;;;;;1.20;0.60;;;5.50;99.90;;;;;;5051154;28;20437;-68
2024/02/23 03:22:23;;;;;;;3.20;0.90;;;5.50;99.90;;;;;;5055521;28;20177;-69
2024/02/23 03:24:48;;;;;;;1.27;0.70;;;5.50;99.90;;;;;;5040200;28;20432;-69
2024/02/23 03:27:14;;;;;;;1.83;0.70;;;5.50;99.90;;;;;;5049147;28;20206;-69
2024/02/23 03:29:39;;;;;;;0.80;0.53;;;5.50;99.90;;;;;;5043653;28;20181;-68
2024/02/23 03:32:06;;;;;;;1.23;0.80;;;5.50;99.90;;;;;;5036529;28;20178;-69
2024/02/23 03:34:31;;;;;;;0.70;0.50;;;5.50;99.90;;;;;;5033846;28;20646;-69
2024/02/23 03:36:58;;;;;;;1.70;0.60;;;5.50;99.90;;;;;;5046750;28;20423;-69
2024/02/23 03:39:24;;;;;;;1.57;0.67;;;5.40;99.90;;;;;;5049758;28;20293;-69
2024/02/23 03:41:49;;;;;;;2.17;0.80;;;5.40;99.90;;;;;;5050576;28;20846;-69
2024/02/23 03:44:15;;;;;;;0.70;0.70;;;5.40;99.90;;;;;;5038134;28;20507;-68
2024/02/23 03:46:40;;;;;;;1.10;0.80;;;5.40;99.90;;;;;;5062288;28;20200;-69
2024/02/23 03:49:06;;;;;;;1.43;0.80;;;5.40;99.90;;;;;;5049195;28;20280;-69
2024/02/23 03:51:34;;;;;;;5.43;0.73;;;5.40;99.90;;;;;;5054432;28;20173;-69
2024/02/23 03:54:00;;;;;;;1.77;0.87;;;5.40;99.90;;;;;;5042395;28;20216;-69
2024/02/23 03:56:25;;;;;;;3.70;0.70;;;5.40;99.90;;;;;;5049291;28;20428;-68
2024/02/23 03:58:51;;;;;;;0.70;0.60;;;5.30;99.90;;;;;;5054697;28;20277;-68
2024/02/23 04:01:16;;;;;;;2.67;0.70;;;5.40;99.90;;;;;;5053284;28;20264;-69
2024/02/23 04:03:42;;;;;;;1.47;0.80;;;5.30;99.90;;;;;;5045477;28;20327;-69
2024/02/23 04:06:08;;;;;;;3.37;1.00;;;5.30;99.90;;;;;;5044535;28;20209;-69
2024/02/23 04:08:33;;;;;;;1.40;1.00;;;5.30;99.90;;;;;;5053859;28;20235;-69
2024/02/23 04:10:59;;;;;;;4.13;0.83;;;5.30;99.90;;;;;;5051053;28;20185;-69
2024/02/23 04:13:24;;;;;;;2.20;0.70;;;5.30;99.90;;;;;;5038737;28;20192;-69
2024/02/23 04:15:50;;;;;;;3.07;0.70;;;5.30;99.90;;;;;;5049764;28;20182;-69
2024/02/23 04:18:15;;;;;;;1.00;1.00;;;5.30;99.90;;;;;;5063909;28;20666;-68
2024/02/23 04:20:41;;;;;;;0.80;0.70;;;5.30;99.90;;;;;;5053509;28;20178;-68
2024/02/23 04:23:07;;;;;;;0.80;0.60;;;5.30;99.90;;;;;;5036000;28;20170;-68
2024/02/23 04:25:32;;;;;;;2.43;0.87;;;5.30;99.90;;;;;;5031803;28;20421;-68
2024/02/23 04:27:58;;;;;;;1.57;0.90;;;5.30;99.90;;;;;;5041669;28;20237;-69
2024/02/23 04:30:23;;;;;;;1.53;0.63;;;5.20;99.90;;;;;;5056782;28;20182;-69
2024/02/23 04:32:49;;;;;;;1.53;0.90;;;5.20;99.90;;;;;;5044509;28;20174;-69
2024/02/23 04:35:15;;;;;;;2.30;1.07;;;5.20;99.90;;;;;;5042831;28;20197;-69
2024/02/23 04:37:44;;;;;;;1.30;0.70;;;5.20;99.90;;;;;;5053532;28;20731;-69
2024/02/23 04:40:10;;;;;;;1.93;0.97;;;5.20;99.90;;;;;;5056828;28;20435;-69
2024/02/23 04:42:36;;;;;;;1.30;0.70;;;5.20;99.90;;;;;;5047966;28;20847;-69
2024/02/23 04:45:01;;;;;;;1.73;1.10;;;5.20;99.90;;;;;;5061465;28;20481;-69
2024/02/23 04:47:27;;;;;;;2.50;1.03;;;5.20;99.90;;;;;;5052574;28;20259;-69
2024/02/23 04:49:52;;;;;;;3.00;1.13;;;5.20;99.90;;;;;;5067965;28;20568;-69
2024/02/23 04:52:18;;;;;;;0.80;0.80;;;5.20;99.90;;;;;;5043381;28;20257;-69
2024/02/23 04:54:44;;;;;;;9.20;1.30;;;5.10;99.90;;;;;;5031766;28;20589;-69
2024/02/23 04:57:09;;;;;;;1.67;0.60;;;5.10;99.90;;;;;;5047256;28;20903;-69
2024/02/23 04:59:35;;;;;;;4.77;0.83;;;5.10;99.90;;;;;;5055743;28;20208;-69
2024/02/23 05:02:00;;;;;;;3.53;0.70;;;5.10;99.90;;;;;;5047717;28;20211;-69
2024/02/23 05:04:26;;;;;;;3.80;1.30;;;5.10;99.90;;;;;;5035801;28;20200;-69
2024/02/23 05:06:52;;;;;;;3.23;0.80;;;5.10;99.90;;;;;;5048535;28;20201;-69
2024/02/23 05:09:18;;;;;;;2.20;1.07;;;5.10;99.90;;;;;;5057584;28;20444;-69
2024/02/23 05:11:43;;;;;;;1.70;0.90;;;5.10;99.90;;;;;;5046728;28;20209;-69
2024/02/23 05:14:09;;;;;;;1.60;0.93;;;5.10;99.90;;;;;;5057964;28;20194;-68
2024/02/23 05:16:34;;;;;;;1.23;0.60;;;5.10;99.90;;;;;;5056007;28;20242;-69
2024/02/23 05:19:00;;;;;;;1.70;0.90;;;5.00;99.90;;;;;;5058806;28;20567;-69
2024/02/23 05:21:25;;;;;;;1.37;0.77;;;5.00;99.90;;;;;;5049680;28;20552;-69
2024/02/23 05:23:52;;;;;;;1.83;0.83;;;5.00;99.90;;;;;;5061007;28;20177;-69
2024/02/23 05:26:17;;;;;;;2.93;1.33;;;5.00;99.90;;;;;;5048826;28;20192;-69
2024/02/23 05:28:43;;;;;;;10.30;1.93;;;5.00;99.90;;;;;;5053249;28;20451;-69
2024/02/23 05:31:09;;;;;;;3.93;1.20;;;4.90;99.90;;;;;;5062525;28;20169;-69
2024/02/23 05:33:35;;;;;;;8.83;2.37;;;4.90;99.90;;;;;;5053232;28;20177;-69
2024/02/23 05:36:00;;;;;;;5.57;2.67;;;4.90;99.90;;;;;;5057256;28;20775;-69
2024/02/23 05:38:26;;;;;;;2.40;1.17;;;4.90;99.90;;;;;;5060080;28;20212;-69
2024/02/23 05:40:51;;;;;;;1.13;1.03;;;4.80;99.90;;;;;;5041824;28;20275;-68
2024/02/23 05:43:17;;;;;;;3.03;1.10;;;4.80;99.90;;;;;;5058614;28;20653;-69
2024/02/23 05:45:44;;;;;;;0.87;0.87;;;4.80;99.90;;;;;;5041490;28;20178;-70
2024/02/23 05:48:09;;;;;;;4.90;2.00;;;4.80;99.90;;;;;;5055067;28;20182;-69
2024/02/23 05:50:34;;;;;;;1.97;1.23;;;4.80;99.90;;;;;;5052827;28;20805;-69
2024/02/23 05:53:00;;;;;;;1.10;1.00;;;4.80;99.90;;;;;;5060060;28;20174;-69
2024/02/23 05:55:25;;;;;;;1.53;1.00;;;4.70;99.90;;;;;;5048495;28;20177;-69
2024/02/23 05:57:54;;;;;;;5.73;1.47;;;4.70;99.90;;;;;;5052691;28;20220;-69
2024/02/23 06:00:21;;;;;;;3.23;0.90;;;4.60;99.90;;;;;;5054634;28;20186;-69
2024/02/23 06:02:47;;;;;;;1.73;1.10;;;4.50;99.90;;;;;;5057878;28;20439;-69
2024/02/23 06:05:13;;;;;;;0.90;0.80;;;4.40;99.90;;;;;;5055860;28;20436;-69
2024/02/23 06:07:38;;;;;;;1.00;1.00;;;4.30;99.90;;;;;;5063010;28;20213;-69
2024/02/23 06:10:04;;;;;;;1.73;1.07;;;4.30;99.90;;;;;;5069018;28;20474;-69
2024/02/23 06:12:30;;;;;;;1.83;1.73;;;4.30;99.90;;;;;;5063431;28;20176;-69
2024/02/23 06:14:58;;;;;;;3.23;0.90;;;4.30;99.90;;;;;;5057509;28;20788;-69
2024/02/23 06:17:23;;;;;;;1.70;0.90;;;4.30;99.90;;;;;;5052612;28;20184;-69
2024/02/23 06:19:49;;;;;;;4.20;1.00;;;4.30;99.90;;;;;;5063206;28;20440;-69
2024/02/23 06:22:20;;;;;;;2.30;0.93;;;4.30;99.90;;;;;;5054280;28;20545;-69
2024/02/23 06:24:46;;;;;;;2.80;1.03;;;4.30;99.90;;;;;;5054075;28;20181;-69
2024/02/23 06:27:12;;;;;;;3.53;0.97;;;4.30;99.90;;;;;;5051302;28;20543;-69
2024/02/23 06:29:37;;;;;;;2.40;1.03;;;4.30;99.90;;;;;;5054193;28;21295;-69
2024/02/23 06:32:03;;;;;;;2.77;1.40;;;4.30;99.90;;;;;;5064785;28;20181;-69
2024/02/23 06:34:29;;;;;;;1.90;1.33;;;4.30;99.90;;;;;;5073916;28;20176;-69
2024/02/23 06:36:54;;;;;;;1.63;1.33;;;4.30;99.90;;;;;;5062749;28;20538;-68
2024/02/23 06:39:20;;;;;;;2.00;1.00;;;4.30;99.90;;;;;;5054518;28;20251;-69
2024/02/23 06:41:45;;;;;;;1.33;1.20;;;4.30;99.90;;;;;;5052897;28;20268;-69
2024/02/23 06:44:11;;;;;;;6.50;1.37;;;4.30;99.90;;;;;;5055084;28;20282;-68
2024/02/23 06:46:37;;;;;;;1.47;1.23;;;4.40;99.90;;;;;;5050618;28;20208;-68
2024/02/23 06:49:02;;;;;;;1.80;1.53;;;4.50;99.90;;;;;;5054882;28;20190;-69
2024/02/23 06:51:28;;;;;;;2.67;1.43;;;4.70;99.90;;;;;;5061783;28;20176;-69
2024/02/23 06:53:53;;;;;;;2.40;1.10;;;4.80;99.90;;;;;;5056242;28;20176;-69
2024/02/23 06:56:19;;;;;;;2.50;1.20;;;4.80;99.90;;;;;;5057666;28;20242;-69
2024/02/23 06:58:45;;;;;;;4.10;1.60;;;4.70;99.90;;;;;;5050793;28;20680;-69
2024/02/23 07:01:12;;;;;;;1.27;1.00;;;4.70;99.90;;;;;;5040775;28;20177;-69
2024/02/23 07:03:39;;;;;;;2.83;0.90;;;4.80;99.90;;;;;;5052426;28;20949;-69
2024/02/23 07:06:05;;;;;;;3.17;1.30;;;4.70;99.90;;;;;;5055576;28;20453;-68
2024/02/23 07:08:30;;;;;;;4.20;3.53;;;4.60;99.90;;;;;;5052243;28;20808;-69
2024/02/23 07:10:56;;;;;;;2.10;1.90;;;4.60;99.90;;;;;;5051137;28;20269;-69
2024/02/23 07:13:22;;;;;;;2.53;2.13;;;4.60;99.90;;;;;;5042092;28;20173;-69
2024/02/23 07:15:48;;;;;;;2.13;1.50;;;4.70;99.90;;;;;;5059747;28;20438;-69
2024/02/23 07:18:13;;;;;;;1.73;1.43;;;4.70;99.90;;;;;;5055117;28;20205;-68
2024/02/23 07:20:39;;;;;;;3.27;1.80;;;4.70;99.90;;;;;;5046857;28;20222;-69
2024/02/23 07:23:06;;;;;;;2.37;1.57;;;4.80;99.90;;;;;;5049178;28;20179;-68
2024/02/23 07:25:31;;;;;;;3.30;2.10;;;4.80;99.90;;;;;;5055865;28;20174;-68
2024/02/23 07:27:56;;;;;;;2.63;1.57;;;4.80;99.90;;;;;;5052288;28;20501;-68
2024/02/23 07:30:22;;;;;;;2.60;1.80;;;5.00;99.90;;;;;;5066275;28;20181;-69
2024/02/23 07:32:48;;;;;;;2.63;1.30;;;5.10;99.90;;;;;;5053159;28;20185;-69
2024/02/23 07:35:13;;;;;;;2.83;1.10;;;5.20;99.90;;;;;;5057472;28;20184;-68
2024/02/23 07:37:39;;;;;;;2.00;1.10;;;5.20;99.90;;;;;;5031313;28;20656;-68
2024/02/23 07:40:05;;;;;;;3.60;1.60;;;5.30;99.90;;;;;;5042874;28;20180;-68
2024/02/23 07:42:32;;;;;;;3.40;1.90;;;5.30;99.90;;;;;;5050376;28;20185;-69
2024/02/23 07:44:58;;;;;;;7.40;3.20;;;5.50;99.90;;;;;;5060285;28;20427;-69
2024/02/23 07:47:24;;;;;;;3.57;2.23;;;5.60;99.90;;;;;;5056509;28;20467;-68
2024/02/23 07:49:49;;;;;;;3.70;2.20;;;5.70;99.90;;;;;;5062712;28;20428;-68
2024/02/23 07:52:15;;;;;;;3.73;1.40;;;5.70;99.90;;;;;;5038613;28;20638;-69
2024/02/23 07:54:40;;;;;;;3.70;1.63;;;5.80;99.90;;;;;;5053430;28;20261;-68
2024/02/23 07:57:07;;;;;;;3.63;2.87;;;5.70;99.90;;;;;;5053407;28;20608;-69
2024/02/23 07:59:33;;;;;;;6.63;1.80;;;5.70;99.90;;;;;;5050034;28;20208;-68
2024/02/23 08:01:58;;;;;;;1.90;1.23;;;5.60;99.90;;;;;;5049876;28;20451;-68
2024/02/23 08:04:24;;;;;;;2.60;1.43;;;5.50;99.90;;;;;;5052418;28;20525;-72
2024/02/23 08:06:50;;;;;;;4.37;1.47;;;5.40;99.90;;;;;;5048237;28;20197;-70
2024/02/23 08:09:17;;;;;;;1.57;1.00;;;5.40;99.90;;;;;;5071277;28;20570;-70
2024/02/23 08:11:43;;;;;;;4.37;1.57;;;5.40;99.90;;;;;;5057411;28;20461;-70
2024/02/23 08:14:08;;;;;;;1.83;1.50;;;5.40;99.90;;;;;;5046230;28;20428;-71
2024/02/23 08:16:34;;;;;;;2.90;1.30;;;5.40;99.90;;;;;;5048582;28;20170;-71
2024/02/23 08:18:59;;;;;;;5.53;2.40;;;5.40;99.90;;;;;;5052252;28;20193;-71
2024/02/23 08:21:26;;;;;;;2.80;1.50;;;5.50;99.90;;;;;;5051957;28;20543;-70
2024/02/23 08:23:51;;;;;;;7.43;1.30;;;5.70;99.90;;;;;;5044510;28;20193;-70
2024/02/23 08:26:17;;;;;;;2.40;1.07;;;5.70;99.90;;;;;;5053426;28;20663;-70
2024/02/23 08:28:42;;;;;;;1.60;1.30;;;5.80;99.90;;;;;;5033893;28;20217;-71
2024/02/23 08:31:08;;;;;;;2.20;1.23;;;5.80;99.90;;;;;;5052019;28;20193;-71
2024/02/23 08:33:34;;;;;;;2.40;1.30;;;5.90;99.90;;;;;;5064211;28;20670;-71
2024/02/23 08:35:59;;;;;;;3.57;1.30;;;5.90;99.90;;;;;;5047144;28;20169;-71
2024/02/23 08:38:25;;;;;;;1.83;1.23;;;5.90;99.90;;;;;;5053273;28;20202;-71
2024/02/23 08:40:50;;;;;;;1.23;0.90;;;5.80;99.90;;;;;;5055964;28;20420;-71
2024/02/23 08:43:16;;;;;;;2.20;1.10;;;5.70;99.90;;;;;;5049565;28;20643;-70
2024/02/23 08:45:42;;;;;;;1.43;0.97;;;5.70;99.90;;;;;;5047584;28;20212;-71
2024/02/23 08:48:08;;;;;;;2.13;0.90;;;5.70;99.90;;;;;;5066000;28;20755;-70
2024/02/23 08:50:34;;;;;;;2.80;1.30;;;5.70;99.90;;;;;;5054275;28;20203;-70
2024/02/23 08:52:59;;;;;;;1.43;1.17;;;5.70;99.90;;;;;;5044093;28;20433;-70
2024/02/23 08:55:25;;;;;;;1.77;0.80;;;5.80;99.90;;;;;;5043055;28;20178;-70
2024/02/23 08:57:50;;;;;;;2.00;0.80;;;5.80;99.90;;;;;;5045725;28;20213;-70
2024/02/23 09:00:16;;;;;;;4.17;3.27;;;5.70;99.90;;;;;;5052822;28;20193;-70
2024/02/23 09:02:42;;;;;;;1.47;1.10;;;5.70;99.90;;;;;;5049703;28;20185;-70
2024/02/23 09:05:11;;;;;;;2.60;0.87;;;5.70;99.90;;;;;;5056918;28;20265;-70
2024/02/23 09:07:36;;;;;;;4.03;0.90;;;5.70;99.90;;;;;;5059827;28;20295;-70
2024/02/23 09:10:04;;;;;;;4.67;2.40;;;5.70;99.90;;;;;;5075198;28;20499;-70
2024/02/23 09:12:30;;;;;;;1.60;0.90;;;5.70;99.90;;;;;;5061257;28;20182;-70
2024/02/23 09:14:55;;;;;;;3.00;1.60;;;5.60;99.90;;;;;;5041193;28;20912;-70
2024/02/23 09:17:21;;;;;;;1.47;0.90;;;5.60;99.90;;;;;;5047901;28;20244;-70
2024/02/23 09:19:47;;;;;;;2.77;1.07;;;5.70;99.90;;;;;;5053969;28;20185;-70
2024/02/23 09:22:13;;;;;;;1.53;1.20;;;5.80;99.90;;;;;;5046668;28;20197;-69
2024/02/23 09:24:41;;;;;;;2.40;1.20;;;5.90;99.90;;;;;;5035614;28;20498;-70
2024/02/23 09:27:07;;;;;;;3.17;1.20;;;6.10;99.90;;;;;;5055953;28;20206;-70
2024/02/23 09:29:33;;;;;;;3.93;1.53;;;6.30;99.90;;;;;;5046326;28;20466;-70
2024/02/23 09:32:00;;;;;;;3.77;1.30;;;6.40;99.90;;;;;;5037629;28;20437;-70
2024/02/23 09:34:25;;;;;;;1.93;1.57;;;6.50;99.90;;;;;;5042138;28;20431;-70
2024/02/23 09:36:51;;;;;;;2.80;1.43;;;6.60;99.90;;;;;;5046629;28;20531;-70
2024/02/23 09:39:16;;;;;;;3.30;1.57;;;6.70;99.90;;;;;;5048374;28;20194;-70
2024/02/23 09:41:43;;;;;;;3.43;0.83;;;6.60;99.90;;;;;;5039264;28;20575;-70
2024/02/23 09:44:09;;;;;;;1.23;1.13;;;6.70;99.90;;;;;;5048167;28;20209;-70
2024/02/23 09:46:37;;;;;;;1.47;1.10;;;7.00;99.90;;;;;;5056498;28;20885;-70
2024/02/23 09:49:03;;;;;;;2.40;1.13;;;7.40;99.90;;;;;;5047194;28;20491;-70
2024/02/23 09:51:30;;;;;;;5.73;1.40;;;8.00;99.90;;;;;;5042236;28;20429;-70
2024/02/23 09:53:57;;;;;;;1.60;1.03;;;8.40;99.90;;;;;;5044173;28;20442;-70
2024/02/23 09:56:26;;;;;;;2.33;1.57;;;8.50;99.90;;;;;;5034032;28;20527;-69
2024/02/23 09:58:53;;;;;;;2.13;1.20;;;8.30;99.90;;;;;;5044365;28;20468;-69
2024/02/23 10:01:26;;;;;;;1.80;1.30;;;8.20;99.90;;;;;;5042493;28;20436;-69
2024/02/23 10:03:54;;;;;;;4.93;1.27;;;7.80;99.90;;;;;;5042405;28;20845;-70
2024/02/23 10:06:20;;;;;;;2.63;1.30;;;7.80;99.90;;;;;;5061315;28;20516;-69
2024/02/23 10:08:45;;;;;;;3.23;1.03;;;7.80;99.90;;;;;;5043178;28;20451;-70
2024/02/23 10:11:11;;;;;;;3.90;1.70;;;8.10;99.90;;;;;;5039517;28;20421;-70
2024/02/23 10:13:36;;;;;;;3.20;1.70;;;8.40;99.90;;;;;;5049769;28;20288;-70
2024/02/23 10:16:02;;;;;;;2.20;1.00;;;8.10;99.90;;;;;;5052494;28;20688;-70
2024/02/23 10:18:27;;;;;;;3.27;1.27;;;8.00;99.90;;;;;;5050187;28;20193;-69
2024/02/23 10:20:53;;;;;;;1.67;1.10;;;7.70;99.90;;;;;;5053271;28;20710;-71
2024/02/23 10:23:20;;;;;;;3.07;1.43;;;7.60;99.90;;;;;;5065018;28;20264;-71
2024/02/23 10:25:45;;;;;;;1.70;1.00;;;7.60;99.90;;;;;;5051097;28;20173;-70
2024/02/23 10:28:11;;;;;;;2.00;1.00;;;7.60;99.90;;;;;;5047617;28;20534;-70
2024/02/23 10:30:38;;;;;;;2.17;1.20;;;7.90;99.90;;;;;;5043492;28;20193;-70
2024/02/23 10:33:05;;;;;;;2.10;1.07;;;8.20;99.90;;;;;;5042296;28;20192;-70
2024/02/23 10:35:35;;;;;;;4.57;1.73;;;8.00;99.90;;;;;;5038995;28;20436;-70
2024/02/23 10:38:04;;;;;;;1.03;0.90;;;7.90;99.90;;;;;;5058165;28;20543;-70
2024/02/23 10:40:31;;;;;;;2.40;1.30;;;7.70;99.90;;;;;;5050048;28;20439;-70
2024/02/23 10:43:02;;;;;;;5.13;1.40;;;7.70;99.90;;;;;;5049093;28;20446;-69
2024/02/23 10:45:28;;;;;;;2.60;1.30;;;7.70;99.90;;;;;;5046837;28;20451;-69
2024/02/23 10:47:55;;;;;;;4.53;1.50;;;8.10;99.90;;;;;;5045321;28;20461;-69
2024/02/23 10:50:22;;;;;;;3.60;1.23;;;8.80;99.90;;;;;;5038221;28;20498;-69
2024/02/23 10:52:48;;;;;;;7.93;1.90;;;8.90;99.90;;;;;;5051303;28;20474;-69
2024/02/23 10:55:14;;;;;;;4.90;1.33;;;9.00;99.90;;;;;;5050428;28;20502;-70
2024/02/23 10:57:40;;;;;;;2.47;1.23;;;8.70;99.90;;;;;;5053432;28;20455;-69
2024/02/23 11:00:09;;;;;;;4.03;1.20;;;8.80;99.90;;;;;;5044485;28;20178;-73
2024/02/23 11:02:43;;;;;;;3.80;1.50;;;8.80;99.90;;;;;;5058166;28;20287;-69
2024/02/23 11:05:12;;;;;;;5.93;1.50;;;8.70;99.90;;;;;;5041747;28;20425;-71
2024/02/23 11:07:39;;;;;;;4.37;1.30;;;8.70;99.90;;;;;;5042029;28;20928;-71
2024/02/23 11:10:05;;;;;;;3.23;1.00;;;9.00;99.90;;;;;;5045286;28;20466;-70
2024/02/23 11:12:31;;;;;;;4.83;1.63;;;8.90;99.90;;;;;;5039138;28;20982;-70
2024/02/23 11:15:00;;;;;;;5.30;1.83;;;8.90;99.90;;;;;;5032981;28;20518;-69
2024/02/23 11:17:33;;;;;;;2.37;1.30;;;9.00;99.90;;;;;;5049989;28;20268;-69
2024/02/23 11:20:02;;;;;;;6.33;3.10;;;8.90;99.90;;;;;;5044419;28;20936;-68
2024/02/23 11:22:35;;;;;;;6.80;4.80;;;8.80;99.90;;;;;;5036031;28;20440;-68
2024/02/23 11:25:11;;;;;;;9.30;4.77;;;8.50;99.90;;;;;;5052556;28;20435;-69
2024/02/23 11:27:38;;;;;;;1.77;1.30;;;8.20;99.90;;;;;;5057971;28;20498;-68
2024/02/23 11:30:08;;;;;;;5.30;1.57;;;8.00;99.90;;;;;;5053328;28;20451;-68
2024/02/23 11:32:41;;;;;;;6.17;3.17;;;7.80;99.90;;;;;;5046961;28;20775;-68
2024/02/23 11:35:07;;;;;;;2.40;1.20;;;7.80;99.90;;;;;;5046564;28;20421;-69
2024/02/23 11:37:43;;;;;;;3.77;1.30;;;8.00;99.90;;;;;;5037288;28;21162;-68
2024/02/23 11:40:10;;;;;;;2.90;1.00;;;8.20;99.90;;;;;;5038549;28;20412;-68
2024/02/23 11:42:36;;;;;;;4.20;1.63;;;8.10;99.90;;;;;;5052350;28;20979;-69
2024/02/23 11:45:03;;;;;;;4.60;1.77;;;8.00;99.90;;;;;;5047581;28;20416;-68
2024/02/23 11:47:28;;;;;;;2.20;0.90;;;8.10;99.90;;;;;;5035233;28;20457;-70
2024/02/23 11:49:55;;;;;;;2.50;1.27;;;8.00;99.90;;;;;;5057320;28;20847;-69
2024/02/23 11:52:21;;;;;;;4.77;2.07;;;7.90;99.90;;;;;;5046292;28;20416;-69
2024/02/23 11:54:46;;;;;;;3.37;0.87;;;8.10;99.90;;;;;;5049477;28;20275;-70
2024/02/23 11:57:13;;;;;;;3.30;1.23;;;8.20;99.90;;;;;;5069921;28;20431;-69
2024/02/23 11:59:41;;;;;;;3.20;1.23;;;8.50;99.90;;;;;;5072479;28;20188;-69
2024/02/23 12:02:07;;;;;;;4.23;1.47;;;8.60;99.90;;;;;;5038417;28;20434;-70
2024/02/23 12:04:33;;;;;;;2.93;1.23;;;8.90;99.90;;;;;;5049703;28;20468;-70
2024/02/23 12:06:58;;;;;;;3.30;1.10;;;9.10;99.90;;;;;;5050998;28;20495;-69
2024/02/23 12:09:24;;;;;;;3.63;1.20;;;9.40;99.90;;;;;;5043145;28;20212;-70
2024/02/23 12:11:50;;;;;;;2.97;1.30;;;9.50;99.90;;;;;;5055760;28;20619;-69
2024/02/23 12:14:16;;;;;;;1.97;1.33;;;9.60;99.90;;;;;;5051422;28;20173;-70
2024/02/23 12:16:42;;;;;;;3.40;1.70;;;9.60;99.90;;;;;;5049093;28;20231;-70
2024/02/23 12:19:08;;;;;;;2.77;1.40;;;9.30;99.90;;;;;;5050749;28;20830;-70
2024/02/23 12:21:36;;;;;;;4.53;1.50;;;8.90;99.90;;;;;;5031736;28;20690;-70
2024/02/23 12:24:04;;;;;;;5.27;1.60;;;8.50;99.90;;;;;;5034733;28;20432;-70
2024/02/23 12:26:30;;;;;;;4.47;1.50;;;8.30;99.90;;;;;;5038551;28;20615;-70
2024/02/23 12:29:03;;;;;;;2.80;1.57;;;8.20;99.90;;;;;;5031647;28;20444;-70
2024/02/23 12:31:31;;;;;;;4.63;1.13;;;8.20;99.90;;;;;;5048603;28;20469;-70
2024/02/23 12:33:57;;;;;;;1.83;1.47;;;8.20;99.90;;;;;;5045444;28;20543;-70
2024/02/23 12:36:23;;;;;;;3.90;1.50;;;8.30;99.90;;;;;;5050556;28;20443;-69
2024/02/23 12:38:48;;;;;;;5.40;1.33;;;8.20;99.90;;;;;;5052864;28;20820;-70
2024/02/23 12:41:14;;;;;;;3.63;1.20;;;8.20;99.90;;;;;;5053257;28;20180;-70
2024/02/23 12:43:40;;;;;;;6.37;1.37;;;8.10;99.90;;;;;;5032445;28;20182;-70
2024/02/23 12:46:08;;;;;;;3.83;1.10;;;8.10;99.90;;;;;;5033250;28;20252;-70
2024/02/23 12:48:33;;;;;;;2.10;1.13;;;8.20;99.90;;;;;;5030604;28;20198;-70
2024/02/23 12:50:59;;;;;;;4.30;0.80;;;8.00;99.90;;;;;;5039066;28;20430;-70